Time;durP1;ratioP1;P1;durP2;ratioP2;P2;SDS_P1;SDS_P2;PMS_P1;PMS_P2;Temp;Humidity;BMP_temperature;BMP_pressure;BME280_temperature;BME280_humidity;BME280_pressure;Samples;Min_cycle;Max_cycle;Signal;HPM_P1;HPM_P2
2021/07/20 00:00:16;;;;;;;0.10;0.10;;;;;;;21.24;79.60;98800.31;4943129;28;20882;-77
2021/07/20 00:02:44;;;;;;;0.00;0.00;;;;;;;21.18;79.40;98801.31;4938149;28;20039;-77
2021/07/20 00:05:12;;;;;;;0.10;0.10;;;;;;;21.20;79.55;98799.13;4938076;28;20421;-77
2021/07/20 00:07:39;;;;;;;0.10;0.10;;;;;;;21.21;79.23;98806.31;4954037;28;20121;-77
2021/07/20 00:10:13;;;;;;;0.10;0.10;;;;;;;21.24;79.25;98804.97;4953322;28;20121;-77
2021/07/20 00:12:40;;;;;;;0.10;0.10;;;;;;;21.27;79.06;98815.50;4945057;28;20212;-77
2021/07/20 00:15:08;;;;;;;0.10;0.10;;;;;;;21.26;78.89;98814.66;4971885;28;20074;-77
2021/07/20 00:17:34;;;;;;;0.10;0.10;;;;;;;21.29;79.01;98814.19;4937945;28;20269;-77
2021/07/20 00:20:03;;;;;;;0.10;0.10;;;;;;;21.30;78.65;98821.34;4951285;28;20051;-76
2021/07/20 00:22:28;;;;;;;0.10;0.10;;;;;;;21.34;79.23;98822.56;4953249;28;20239;-78
2021/07/20 00:24:54;;;;;;;0.10;0.10;;;;;;;21.36;78.47;98823.19;4971201;28;20130;-77
2021/07/20 00:27:20;;;;;;;0.10;0.10;;;;;;;;;;4971004;28;20125;-77
2021/07/20 00:29:46;;;;;;;0.10;0.10;;;;;;;21.21;78.96;98822.81;4970914;28;20049;-78
2021/07/20 00:32:12;;;;;;;0.10;0.10;;;;;;;21.24;78.63;98821.47;4952545;28;20039;-78
2021/07/20 00:34:38;;;;;;;0.10;0.10;;;;;;;21.26;78.98;98822.91;4953712;28;20049;-79
2021/07/20 00:37:05;;;;;;;0.10;0.10;;;;;;;21.24;78.63;98822.31;4945171;28;20133;-76
2021/07/20 00:39:32;;;;;;;0.10;0.10;;;;;;;21.23;78.56;98828.91;4970976;28;20039;-76
2021/07/20 00:41:57;;;;;;;0.10;0.10;;;;;;;21.20;78.53;98832.13;4964895;28;20044;-78
2021/07/20 00:44:25;;;;;;;0.10;0.10;;;;;;;21.26;78.41;98820.16;4938537;28;20065;-79
2021/07/20 00:46:51;;;;;;;0.10;0.10;;;;;;;21.25;77.42;98818.50;4954540;28;20050;-77
2021/07/20 00:49:17;;;;;;;0.10;0.10;;;;;;;21.19;77.60;98814.78;4953116;28;20046;-77
2021/07/20 00:51:43;;;;;;;0.10;0.10;;;;;;;21.17;77.65;98818.84;4953616;28;20610;-76
2021/07/20 00:54:11;;;;;;;0.10;0.10;;;;;;;21.21;77.59;98817.31;4952560;28;20043;-78
2021/07/20 00:56:37;;;;;;;0.10;0.10;;;;;;;21.17;76.83;98814.22;4952590;28;20129;-77
2021/07/20 00:59:03;;;;;;;0.10;0.10;;;;;;;21.17;76.87;98816.09;4970165;28;20448;-79
2021/07/20 01:01:30;;;;;;;0.10;0.10;;;;;;;21.15;76.69;98808.09;4948938;29;20523;-78
2021/07/20 01:03:57;;;;;;;0.10;0.10;;;;;;;21.12;76.70;98803.09;4970716;28;20045;-77
2021/07/20 01:06:28;;;;;;;0.10;0.10;;;;;;;21.09;77.18;98813.72;4953031;28;20046;-77
2021/07/20 01:08:56;;;;;;;0.10;0.10;;;;;;;21.05;76.97;98804.28;4943940;28;20057;-78
2021/07/20 01:11:25;;;;;;;0.10;0.10;;;;;;;21.05;77.06;98801.53;4953322;28;20049;-76
2021/07/20 01:13:53;;;;;;;0.10;0.10;;;;;;;21.03;76.61;98809.22;4945830;28;20047;-77
2021/07/20 01:16:24;;;;;;;0.10;0.10;;;;;;;20.98;76.58;98800.81;4952922;28;20066;-77
2021/07/20 01:18:52;;;;;;;0.10;0.10;;;;;;;20.93;76.64;98805.13;4921904;28;20180;-76
2021/07/20 01:21:18;;;;;;;0.00;0.00;;;;;;;20.93;76.26;98794.16;4936513;28;20043;-76
2021/07/20 01:23:50;;;;;;;0.10;0.10;;;;;;;20.86;76.46;98795.34;4955242;28;20050;-76
2021/07/20 01:26:19;;;;;;;0.10;0.10;;;;;;;20.84;76.16;98789.25;4970328;28;20054;-78
2021/07/20 01:28:48;;;;;;;0.10;0.10;;;;;;;20.89;75.63;98792.94;4951120;28;20042;-77
2021/07/20 01:31:18;;;;;;;0.10;0.10;;;;;;;20.93;75.23;98788.66;4935808;28;20047;-76
2021/07/20 01:33:54;;;;;;;0.10;0.10;;;;;;;20.90;75.28;98783.63;4936209;28;20215;-78
2021/07/20 01:36:24;;;;;;;0.10;0.10;;;;;;;20.85;75.20;98786.28;4953074;28;20050;-77
2021/07/20 01:38:55;;;;;;;0.10;0.10;;;;;;;20.86;75.07;98782.44;4936774;28;20057;-76
2021/07/20 01:41:23;;;;;;;0.10;0.10;;;;;;;20.85;75.28;98785.44;4952423;28;20485;-76
2021/07/20 01:43:54;;;;;;;0.10;0.10;;;;;;;20.77;75.34;98789.38;4936148;28;20035;-76
2021/07/20 01:46:21;;;;;;;0.10;0.10;;;;;;;20.78;75.45;98788.28;4936424;28;20141;-77
2021/07/20 01:48:51;;;;;;;0.10;0.10;;;;;;;20.74;75.74;98795.34;4935562;28;20081;-77
2021/07/20 01:51:20;;;;;;;0.10;0.10;;;;;;;20.74;75.51;98794.50;4953078;28;20046;-77
2021/07/20 01:53:49;;;;;;;0.00;0.00;;;;;;;20.73;75.67;98788.16;4951558;28;20035;-79
2021/07/20 01:56:15;;;;;;;0.00;0.00;;;;;;;20.66;75.96;98798.44;4952170;28;20043;-77
2021/07/20 01:58:42;;;;;;;0.10;0.10;;;;;;;20.70;75.46;98791.41;4920755;28;20120;-77
2021/07/20 02:01:35;;;;;;;0.10;0.10;;;;;;;20.70;75.64;98794.16;4952327;28;20370;-77
2021/07/20 02:04:23;;;;;;;0.10;0.10;;;;;;;20.72;75.20;98792.00;4935116;28;20058;-76
2021/07/20 02:09:37;;;;;;;0.10;0.10;;;;;;;20.78;75.32;98796.53;4930274;28;20055;-77
2021/07/20 02:12:13;;;;;;;0.10;0.10;;;;;;;20.76;75.39;98804.16;4935480;28;20046;-77
2021/07/20 02:15:06;;;;;;;0.10;0.10;;;;;;;20.73;75.60;98798.31;4967575;28;20073;-77
2021/07/20 02:17:48;;;;;;;0.00;0.00;;;;;;;20.68;75.53;98802.63;4969093;28;20038;-78
2021/07/20 02:20:21;;;;;;;0.10;0.10;;;;;;;20.74;75.34;98795.34;4937448;28;20485;-78
2021/07/20 02:23:14;;;;;;;0.10;0.10;;;;;;;20.85;74.64;98801.91;4930105;28;20106;-78
2021/07/20 02:25:41;;;;;;;0.10;0.10;;;;;;;20.93;74.57;98804.31;4952294;28;20038;-77
2021/07/20 02:28:10;;;;;;;0.10;0.10;;;;;;;20.92;73.77;98803.47;4952794;28;20089;-78
2021/07/20 02:30:40;;;;;;;0.10;0.10;;;;;;;20.93;73.50;98799.63;4935984;28;20129;-79
2021/07/20 02:33:07;;;;;;;0.10;0.10;;;;;;;20.99;73.53;98816.22;4948182;28;20567;-77
2021/07/20 02:35:37;;;;;;;0.10;0.10;;;;;;;20.90;73.88;98819.34;4934520;28;20051;-76
2021/07/20 02:38:05;;;;;;;0.10;0.10;;;;;;;20.90;73.87;98807.53;4951800;28;20886;-76
2021/07/20 02:40:33;;;;;;;0.10;0.10;;;;;;;21.05;73.21;98812.53;4939265;28;20425;-78
2021/07/20 02:43:00;;;;;;;0.10;0.10;;;;;;;21.12;73.28;98807.75;4967038;28;20039;-78
2021/07/20 02:45:29;;;;;;;0.10;0.10;;;;;;;21.13;72.49;98809.41;4935798;28;20484;-79
2021/07/20 02:47:57;;;;;;;0.10;0.10;;;;;;;21.29;71.90;98808.69;4935424;28;20401;-77
2021/07/20 02:50:25;;;;;;;0.10;0.10;;;;;;;21.30;72.15;98820.53;4969122;28;20157;-79
2021/07/20 02:53:01;;;;;;;0.10;0.10;;;;;;;21.35;71.65;98813.28;4935760;28;20046;-76
2021/07/20 02:55:37;;;;;;;0.10;0.10;;;;;;;21.57;71.18;98804.34;4934490;29;20043;-77
2021/07/20 02:58:04;;;;;;;0.10;0.10;;;;;;;21.69;70.13;98796.91;4965542;28;20046;-76
2021/07/20 03:00:31;;;;;;;0.10;0.10;;;;;;;21.66;70.16;98806.47;4945874;28;20129;-81
2021/07/20 03:03:03;;;;;;;0.10;0.10;;;;;;;21.73;70.11;98803.59;4934794;28;20162;-78
2021/07/20 03:05:37;;;;;;;0.10;0.10;;;;;;;21.92;69.51;98813.31;4952845;28;20049;-79
2021/07/20 03:08:05;;;;;;;0.10;0.10;;;;;;;22.01;68.69;98810.16;4934777;28;20042;-78
2021/07/20 03:10:39;;;;;;;0.10;0.10;;;;;;;21.97;69.24;98809.00;4966584;28;20349;-77
2021/07/20 03:13:08;;;;;;;0.10;0.10;;;;;;;21.96;68.77;98813.66;4932470;28;20050;-80
2021/07/20 03:15:44;;;;;;;0.10;0.10;;;;;;;22.02;68.55;98809.94;4938275;28;20133;-77
2021/07/20 03:18:11;;;;;;;0.10;0.10;;;;;;;22.14;68.06;98815.41;4950938;28;20101;-79
2021/07/20 03:20:39;;;;;;;0.10;0.10;;;;;;;22.35;67.27;98806.44;4955701;28;20090;-78
2021/07/20 03:23:08;;;;;;;0.10;0.10;;;;;;;22.56;66.35;98801.28;4954279;28;20508;-77
2021/07/20 03:25:34;;;;;;;0.20;0.20;;;;;;;22.77;65.53;98797.75;4920696;28;20062;-78
2021/07/20 03:28:00;;;;;;;0.10;0.10;;;;;;;22.68;65.78;98807.56;4907762;28;20054;-78
2021/07/20 03:30:31;;;;;;;0.10;0.10;;;;;;;22.77;65.42;98808.78;4972593;28;20039;-78
2021/07/20 03:33:02;;;;;;;0.10;0.10;;;;;;;22.83;64.80;98806.97;4921948;28;20395;-78
2021/07/20 03:35:42;;;;;;;0.10;0.10;;;;;;;22.92;64.73;98810.16;4973200;28;20070;-78
2021/07/20 03:38:09;;;;;;;0.10;0.10;;;;;;;23.12;64.45;98810.47;4940561;28;20045;-76
2021/07/20 03:40:38;;;;;;;0.20;0.20;;;;;;;23.55;62.95;98814.38;4942812;28;20448;-77
2021/07/20 03:43:05;;;;;;;0.20;0.20;;;;;;;23.54;62.40;98816.25;4937470;28;20070;-78
2021/07/20 03:45:32;;;;;;;0.10;0.10;;;;;;;23.77;61.78;98811.63;4939133;28;20038;-78
2021/07/20 03:47:58;;;;;;;0.10;0.10;;;;;;;23.92;61.48;98828.38;4954380;28;20047;-77
2021/07/20 03:50:45;;;;;;;0.10;0.10;;;;;;;23.80;61.44;98823.00;4953924;28;20050;-80
2021/07/20 03:53:12;;;;;;;0.20;0.20;;;;;;;24.11;59.90;98828.03;4972299;28;20137;-81
2021/07/20 03:55:50;;;;;;;0.17;0.17;;;;;;;24.33;58.80;98825.22;4955075;28;20062;-76
2021/07/20 03:58:17;;;;;;;0.10;0.10;;;;;;;24.48;58.60;98836.44;4953118;28;20047;-78
2021/07/20 04:00:50;;;;;;;0.10;0.10;;;;;;;24.62;58.29;98832.16;4936517;28;20055;-81
2021/07/20 04:03:24;;;;;;;0.10;0.10;;;;;;;24.77;58.03;98836.97;4923691;28;20099;-81
2021/07/20 04:06:11;;;;;;;0.10;0.10;;;;;;;24.63;57.53;98835.75;4942160;28;20054;-78
2021/07/20 04:09:08;;;;;;;0.20;0.20;;;;;;;24.77;57.66;98837.78;4935015;28;20046;-82
2021/07/20 04:11:55;;;;;;;0.10;0.10;;;;;;;25.15;55.99;98841.41;4943102;28;20521;-77
2021/07/20 04:14:29;;;;;;;0.20;0.20;;;;;;;25.44;54.90;98841.88;4958695;28;20050;-83
2021/07/20 04:17:00;;;;;;;0.20;0.20;;;;;;;25.70;54.71;98837.28;4967620;28;20456;-79
2021/07/20 04:19:26;;;;;;;0.10;0.10;;;;;;;25.71;53.97;98836.22;4954480;28;20141;-80
2021/07/20 04:22:12;;;;;;;0.20;0.20;;;;;;;25.69;54.08;98843.13;4956433;28;20520;-77
2021/07/20 04:24:39;;;;;;;0.20;0.20;;;;;;;25.68;54.07;98835.91;4940783;28;20125;-77
2021/07/20 04:27:07;;;;;;;0.20;0.20;;;;;;;25.83;53.89;98843.50;4973198;28;20055;-77
2021/07/20 04:29:36;;;;;;;0.20;0.20;;;;;;;26.00;53.03;98849.66;4954368;28;20153;-78
2021/07/20 04:32:06;;;;;;;0.20;0.20;;;;;;;26.00;53.10;98857.09;4935569;28;20182;-81
2021/07/20 04:34:35;;;;;;;0.20;0.20;;;;;;;25.78;53.46;98857.25;4967514;28;20051;-81
2021/07/20 04:37:19;;;;;;;0.22;0.22;;;;;;;26.28;52.65;98866.91;4937969;28;20075;-81
2021/07/20 04:40:10;;;;;;;0.30;0.30;;;;;;;26.47;52.23;98862.53;4954279;28;20050;-80
2021/07/20 04:42:37;;;;;;;0.20;0.20;;;;;;;26.97;51.04;98858.13;4939970;28;20049;-80
2021/07/20 04:45:08;;;;;;;0.30;0.30;;;;;;;27.11;49.98;98856.50;4940259;28;20035;-80
2021/07/20 04:47:55;;;;;;;0.30;0.30;;;;;;;27.31;49.98;98860.34;4970467;28;20055;-80
2021/07/20 04:50:30;;;;;;;0.30;0.30;;;;;;;27.49;49.10;98859.75;4953759;28;20039;-81
2021/07/20 04:53:03;;;;;;;0.30;0.30;;;;;;;27.90;47.80;98868.00;4955527;28;20035;-80
2021/07/20 04:55:31;;;;;;;0.30;0.30;;;;;;;27.98;47.52;98867.41;4933722;28;20420;-79
2021/07/20 04:58:03;;;;;;;0.10;0.10;;;;;;;27.72;48.60;98863.03;4938403;28;20086;-79
2021/07/20 05:00:30;;;;;;;0.20;0.20;;;;;;;27.60;48.83;98861.38;4965845;28;20055;-77
2021/07/20 05:02:59;;;;;;;0.30;0.30;;;;;;;27.76;47.74;98864.16;4965542;28;20080;-80
2021/07/20 05:05:39;;;;;;;0.10;0.10;;;;;;;27.27;48.66;98862.84;4954719;28;20074;-83
2021/07/20 05:08:12;;;;;;;0.20;0.20;;;;;;;27.19;49.30;98866.19;4944137;28;20137;-79
2021/07/20 05:10:50;;;;;;;0.20;0.20;;;;;;;27.36;48.98;98874.22;4959818;28;20162;-81
2021/07/20 05:13:27;;;;;;;0.40;0.40;;;;;;;28.08;47.19;98869.28;4962894;28;20051;-81
2021/07/20 05:15:58;;;;;;;0.40;0.40;;;;;;;28.57;45.52;98871.28;4956657;28;20050;-83
2021/07/20 05:18:35;;;;;;;0.22;0.22;;;;;;;28.61;45.80;98869.56;4954875;28;20057;-81
2021/07/20 05:21:04;;;;;;;;;;;;;;;28.72;45.27;98876.72;4974059;28;20118;-83
2021/07/20 05:23:34;;;;;;;0.40;0.40;;;;;;;29.15;44.21;98876.16;4945667;28;19969;-81
2021/07/20 05:26:20;;;;;;;0.20;0.20;;;;;;;28.88;44.72;98869.09;4957606;28;20054;-79
2021/07/20 05:28:46;;;;;;;0.20;0.20;;;;;;;28.94;44.63;98878.22;4952488;28;20065;-81
2021/07/20 05:31:13;;;;;;;0.40;0.40;;;;;;;28.79;45.47;98881.97;4966987;28;20054;-79
2021/07/20 05:33:39;;;;;;;0.43;0.43;;;;;;;29.40;43.62;98878.69;4938429;28;20047;-78
2021/07/20 05:36:13;;;;;;;0.40;0.40;;;;;;;29.91;42.98;98880.94;4971510;28;20108;-79
2021/07/20 05:38:41;;;;;;;0.40;0.40;;;;;;;30.33;41.62;98884.88;4969728;28;20058;-80
2021/07/20 05:41:40;;;;;;;0.30;0.30;;;;;;;30.20;41.75;98882.81;4916171;29;20172;-79
2021/07/20 05:44:10;;;;;;;0.20;0.20;;;;;;;29.25;43.23;98884.38;4949257;28;20081;-80
2021/07/20 05:46:42;;;;;;;0.40;0.40;;;;;;;29.71;42.54;98886.75;4938950;28;20158;-80
2021/07/20 05:49:12;;;;;;;0.40;0.40;;;;;;;29.88;42.18;98880.69;4940581;28;20420;-79
2021/07/20 05:51:41;;;;;;;0.50;0.50;;;;;;;30.77;40.73;98891.25;4937315;28;20039;-78
2021/07/20 05:54:10;;;;;;;0.47;0.47;;;;;;;31.46;39.11;98886.75;4937958;28;20043;-78
2021/07/20 05:56:56;;;;;;;0.50;0.50;;;;;;;31.85;38.22;98883.47;4940337;28;20511;-79
2021/07/20 05:59:39;;;;;;;0.30;0.30;;;;;;;31.89;37.43;98887.34;4951187;28;20051;-81
2021/07/20 06:02:12;;;;;;;0.40;0.40;;;;;;;32.06;36.48;98877.47;4918394;29;20055;-79
2021/07/20 06:04:39;;;;;;;0.40;0.40;;;;;;;32.39;35.57;98887.38;4970414;28;20062;-80
2021/07/20 06:07:06;;;;;;;0.40;0.40;;;;;;;32.14;36.73;98885.13;4950883;28;20067;-81
2021/07/20 06:09:32;;;;;;;0.50;0.50;;;;;;;32.33;36.16;98883.06;4953128;28;20035;-83
2021/07/20 06:12:00;;;;;;;0.47;0.47;;;;;;;32.45;35.85;98878.91;4919498;29;20051;-80
2021/07/20 06:14:28;;;;;;;0.50;0.50;;;;;;;32.59;35.29;98882.50;4952425;28;20026;-81
2021/07/20 06:16:54;;;;;;;0.40;0.40;;;;;;;32.59;34.61;98891.72;4952842;28;20093;-78
2021/07/20 06:19:21;;;;;;;0.50;0.50;;;;;;;32.98;33.76;98892.22;4952917;28;20043;-80
2021/07/20 06:21:47;;;;;;;0.50;0.50;;;;;;;32.02;34.93;98893.22;4956896;28;20061;-81
2021/07/20 06:24:22;;;;;;;0.30;0.30;;;;;;;32.19;34.76;98890.63;4971121;28;20105;-81
2021/07/20 06:26:49;;;;;;;0.63;0.63;;;;;;;32.35;34.67;98897.53;4954136;28;20047;-79
2021/07/20 06:29:15;;;;;;;0.60;0.60;;;;;;;33.20;33.01;98905.41;4936035;28;20035;-80
2021/07/20 06:31:45;;;;;;;0.57;0.57;;;;;;;33.42;32.77;98907.34;4954857;28;20350;-80
2021/07/20 06:34:15;;;;;;;0.50;0.50;;;;;;;33.70;32.62;98903.25;4970251;28;20039;-79
2021/07/20 06:36:44;;;;;;;0.60;0.60;;;;;;;34.00;30.84;98895.97;4953317;28;20047;-79
2021/07/20 06:39:11;;;;;;;0.60;0.60;;;;;;;34.11;30.72;98899.31;4936869;28;20068;-81
2021/07/20 06:41:38;;;;;;;0.68;0.68;;;;;;;34.50;29.58;98903.25;4969502;28;20043;-80
2021/07/20 06:44:05;;;;;;;0.60;0.60;;;;;;;34.17;30.09;98900.00;4954792;28;20109;-84
2021/07/20 06:46:32;;;;;;;0.60;0.60;;;;;;;34.66;29.92;98901.59;4980015;28;20074;-80
2021/07/20 06:49:00;;;;;;;0.60;0.60;;;;;;;33.74;30.49;98893.03;4963094;28;20047;-79
2021/07/20 06:51:29;;;;;;;0.68;0.68;;;;;;;34.23;29.73;98898.72;4959202;28;20043;-81
2021/07/20 06:53:55;;;;;;;0.60;0.60;;;;;;;33.97;29.79;98884.56;4958888;28;20050;-80
2021/07/20 06:56:28;;;;;;;0.60;0.60;;;;;;;34.63;28.70;98899.47;4946223;28;20138;-80
2021/07/20 06:58:55;;;;;;;0.70;0.70;;;;;;;35.20;28.15;98899.31;4941972;28;20039;-81
2021/07/20 07:01:22;;;;;;;0.63;0.63;;;;;;;35.26;26.68;98903.59;4960565;28;20055;-81
2021/07/20 07:04:11;;;;;;;0.60;0.60;;;;;;;34.62;27.17;98897.78;4977039;28;20034;-79
2021/07/20 07:06:42;;;;;;;0.60;0.60;;;;;;;34.70;26.42;98899.81;4954846;28;20055;-82
2021/07/20 07:09:08;;;;;;;0.65;0.65;;;;;;;35.08;25.97;98893.53;4938776;28;20047;-82
2021/07/20 07:11:35;;;;;;;0.70;0.70;;;;;;;35.26;25.54;98891.53;4947002;28;20581;-81
2021/07/20 07:14:02;;;;;;;0.80;0.80;;;;;;;35.60;25.62;98904.69;4956150;28;20035;-81
2021/07/20 07:16:29;;;;;;;0.80;0.80;;;;;;;36.11;24.39;98900.03;4959453;28;20049;-82
2021/07/20 07:18:56;;;;;;;0.68;0.68;;;;;;;36.39;23.63;98893.94;4941772;28;20230;-83
2021/07/20 07:21:23;;;;;;;0.70;0.70;;;;;;;36.33;22.78;98895.28;4950469;28;20546;-83
2021/07/20 07:23:52;;;;;;;0.60;0.60;;;;;;;35.72;23.66;98904.81;4958119;28;20482;-81
2021/07/20 07:26:19;;;;;;;0.80;0.80;;;;;;;36.07;23.84;98903.88;4939527;28;20057;-81
2021/07/20 07:28:49;;;;;;;0.80;0.80;;;;;;;35.53;23.89;98904.38;4969629;28;20082;-82
2021/07/20 07:31:18;;;;;;;0.80;0.80;;;;;;;35.69;23.97;98899.06;4926496;28;20047;-82
2021/07/20 07:33:44;;;;;;;0.80;0.80;;;;;;;36.69;22.94;98898.38;4914820;28;20044;-82
2021/07/20 07:36:12;;;;;;;0.70;0.70;;;;;;;36.87;23.09;98898.25;4937979;28;20093;-82
2021/07/20 07:38:42;;;;;;;0.73;0.73;;;;;;;36.29;24.04;98899.97;4937301;28;20050;-81
2021/07/20 07:41:08;;;;;;;0.80;0.80;;;;;;;36.56;23.43;98898.63;4923518;28;20047;-81
2021/07/20 07:43:35;;;;;;;0.90;0.90;;;;;;;37.26;22.37;98893.25;4955125;28;20368;-82
2021/07/20 07:46:03;;;;;;;0.90;0.90;;;;;;;37.87;21.57;98901.88;4931437;28;20039;-81
2021/07/20 07:48:36;;;;;;;0.88;0.88;;;;;;;37.35;21.30;98896.81;4925000;28;20046;-81
2021/07/20 07:51:05;;;;;;;0.85;0.85;;;;;;;37.86;21.54;98903.06;4940058;28;20502;-81
2021/07/20 07:53:31;;;;;;;0.80;0.80;;;;;;;37.60;21.48;98897.75;4939512;28;20046;-84
2021/07/20 07:55:58;;;;;;;0.73;0.73;;;;;;;38.03;21.25;98905.72;4938044;28;20141;-83
2021/07/20 07:58:29;;;;;;;0.70;0.70;;;;;;;38.59;20.44;98905.91;4956790;28;20066;-84
2021/07/20 08:01:01;;;;;;;0.75;0.75;;;;;;;37.37;20.53;98908.56;4957269;28;20043;-83
2021/07/20 08:03:31;;;;;;;0.90;0.90;;;;;;;38.50;19.50;98907.22;4924881;28;20487;-81
2021/07/20 08:05:59;;;;;;;0.82;0.82;;;;;;;38.85;18.73;98904.69;4925698;28;20058;-81
2021/07/20 08:08:26;;;;;;;0.90;0.90;;;;;;;39.22;18.32;98905.38;4957605;28;20038;-80
2021/07/20 08:10:53;;;;;;;0.80;0.80;;;;;;;38.57;19.50;98911.09;4940766;28;20531;-77
2021/07/20 08:13:22;;;;;;;0.85;0.85;;;;;;;37.54;19.77;98899.13;4958790;28;20051;-81
2021/07/20 08:15:50;;;;;;;0.90;0.90;;;;;;;38.34;19.34;98909.91;4941583;28;20058;-81
2021/07/20 08:18:19;;;;;;;0.80;0.80;;;;;;;38.51;18.81;98915.34;4959103;28;20043;-82
2021/07/20 08:20:47;;;;;;;0.90;0.90;;;;;;;38.28;19.29;98905.69;4930840;28;20070;-81
2021/07/20 08:23:13;;;;;;;0.80;0.80;;;;;;;38.55;18.32;98904.97;4926444;28;20069;-82
2021/07/20 08:25:43;;;;;;;0.80;0.80;;;;;;;38.85;17.88;98912.38;4956482;28;20062;-82
2021/07/20 08:28:14;;;;;;;0.52;0.52;;;;;;;38.24;17.86;98904.75;4956989;28;20107;-81
2021/07/20 08:30:47;;;;;;;0.68;0.68;;;;;;;36.94;19.96;98895.69;4940822;28;20035;-80
2021/07/20 08:33:20;;;;;;;0.40;0.40;;;;;;;36.80;20.59;98900.78;4973896;28;20041;-82
2021/07/20 08:35:48;;;;;;;0.60;0.60;;;;;;;36.40;20.90;98901.22;4956418;28;20085;-81
2021/07/20 08:38:14;;;;;;;1.30;1.30;;;;;;;38.07;18.91;98895.34;4949764;28;20055;-81
2021/07/20 08:40:49;;;;;;;0.70;0.70;;;;;;;38.57;19.24;98896.94;4956937;28;20077;-80
2021/07/20 08:43:36;;;;;;;0.40;0.40;;;;;;;38.41;18.81;98904.53;4964249;28;20055;-81
2021/07/20 08:46:13;;;;;;;0.10;0.10;;;;;;;38.00;19.57;98902.75;4971647;28;20591;-81
2021/07/20 08:48:57;;;;;;;0.93;0.93;;;;;;;37.89;19.72;98908.03;4972498;28;20030;-82
2021/07/20 08:51:34;;;;;;;0.80;0.80;;;;;;;38.83;18.57;98892.91;4953353;28;20109;-80
2021/07/20 08:54:10;;;;;;;0.80;0.80;;;;;;;38.65;18.25;98902.81;4922793;28;20054;-80
2021/07/20 08:56:43;;;;;;;0.90;0.90;;;;;;;39.35;18.67;98903.34;4952988;28;20267;-81
2021/07/20 08:59:19;;;;;;;0.80;0.80;;;;;;;39.07;18.42;98904.16;4946196;28;20134;-79
2021/07/20 09:02:06;;;;;;;0.70;0.70;;;;;;;38.29;19.78;98904.53;4970688;28;20087;-81
2021/07/20 09:04:40;;;;;;;0.90;0.90;;;;;;;38.51;19.24;98906.88;4970534;28;20518;-82
2021/07/20 09:07:13;;;;;;;0.90;0.90;;;;;;;39.50;18.32;98904.56;4965804;28;20773;-82
2021/07/20 09:09:44;;;;;;;0.90;0.90;;;;;;;38.84;17.81;98917.19;4972092;28;20086;-81
2021/07/20 09:12:25;;;;;;;1.00;1.00;;;;;;;39.13;17.91;98912.34;4938320;28;20357;-80
2021/07/20 09:14:56;;;;;;;0.83;0.83;;;;;;;38.59;18.77;98905.91;4954376;28;20119;-81
2021/07/20 09:17:32;;;;;;;0.90;0.90;;;;;;;39.48;17.57;98907.75;4963225;28;20329;-80
2021/07/20 09:19:59;;;;;;;0.80;0.80;;;;;;;39.55;17.63;98913.59;4939615;28;20042;-83
2021/07/20 09:22:51;;;;;;;0.77;0.77;;;;;;;39.39;18.07;98909.94;4932276;28;20463;-82
2021/07/20 09:25:25;;;;;;;0.80;0.80;;;;;;;39.05;19.05;98906.53;4945558;28;20568;-80
2021/07/20 09:28:28;;;;;;;0.80;0.80;;;;;;;39.47;18.35;98903.28;4955871;28;20118;-81
2021/07/20 09:30:54;;;;;;;0.80;0.80;;;;;;;39.13;18.17;98909.53;4966055;28;20131;-80
2021/07/20 09:33:23;;;;;;;0.70;0.70;;;;;;;39.85;17.93;98910.38;4957296;28;20043;-82
2021/07/20 09:36:10;;;;;;;0.70;0.70;;;;;;;40.21;17.17;98912.13;4955786;28;20078;-82
2021/07/20 09:38:55;;;;;;;0.80;0.80;;;;;;;40.82;16.82;98907.06;4954917;28;20042;-81
2021/07/20 09:41:40;;;;;;;0.70;0.70;;;;;;;39.99;17.87;98905.06;4976099;28;20081;-80
2021/07/20 09:44:18;;;;;;;0.70;0.70;;;;;;;40.17;18.53;98904.72;4941170;28;20465;-82
2021/07/20 09:47:04;;;;;;;0.80;0.80;;;;;;;40.02;18.07;98893.00;4935832;28;20042;-82
2021/07/20 09:49:57;;;;;;;0.82;0.82;;;;;;;40.67;17.84;98905.94;4959218;28;20051;-81
2021/07/20 09:52:41;;;;;;;0.70;0.70;;;;;;;39.61;18.84;98902.03;4959375;28;20072;-83
2021/07/20 09:55:45;;;;;;;0.80;0.80;;;;;;;39.16;18.92;98900.34;4960728;28;20065;-83
2021/07/20 09:58:31;;;;;;;0.70;0.70;;;;;;;39.53;18.21;98899.00;4969626;28;20043;-82
2021/07/20 10:01:14;;;;;;;0.60;0.60;;;;;;;39.71;18.73;98898.66;4971213;28;20047;-80
2021/07/20 10:04:02;;;;;;;0.70;0.70;;;;;;;38.89;19.20;98891.50;4955572;28;20047;-81
2021/07/20 10:06:36;;;;;;;0.70;0.70;;;;;;;38.44;19.95;98894.53;4938973;28;20074;-78
2021/07/20 10:09:23;;;;;;;0.70;0.70;;;;;;;39.18;19.24;98898.78;4955786;28;20071;-83
2021/07/20 10:12:21;;;;;;;0.90;0.90;;;;;;;39.01;19.75;98899.91;4938760;28;20069;-83
2021/07/20 10:15:08;;;;;;;0.70;0.70;;;;;;;39.59;18.91;98895.91;4935800;28;20051;-82
2021/07/20 10:17:40;;;;;;;0.70;0.70;;;;;;;39.78;18.93;98894.03;4937142;28;20053;-83
2021/07/20 10:20:22;;;;;;;0.70;0.70;;;;;;;39.74;18.82;98895.94;4936090;29;20050;-81
2021/07/20 10:22:58;;;;;;;0.15;0.15;;;;;;;38.75;19.70;98896.69;4934726;28;20067;-80
2021/07/20 10:25:29;;;;;;;0.70;0.70;;;;;;;39.23;19.39;98898.53;4954372;28;20313;-80
2021/07/20 10:28:17;;;;;;;0.75;0.75;;;;;;;39.45;19.33;98894.31;4936069;28;20045;-81
2021/07/20 10:31:14;;;;;;;0.60;0.60;;;;;;;39.15;19.31;98895.88;4938221;28;20039;-83
2021/07/20 10:33:59;;;;;;;0.70;0.70;;;;;;;39.37;18.10;98889.66;4920931;28;20199;-84
2021/07/20 10:36:30;;;;;;;0.60;0.60;;;;;;;39.83;17.43;98892.94;4938861;28;20078;-82
2021/07/20 10:39:09;;;;;;;0.80;0.80;;;;;;;39.55;17.84;98901.47;4956671;28;20039;-81
2021/07/20 10:41:52;;;;;;;0.60;0.60;;;;;;;39.67;17.64;98900.56;4938729;28;20165;-82
2021/07/20 10:44:27;;;;;;;0.60;0.60;;;;;;;39.36;17.87;98887.19;4923816;28;20109;-80
2021/07/20 10:46:55;;;;;;;0.70;0.70;;;;;;;39.71;18.08;98898.66;4937727;28;20046;-83
2021/07/20 10:49:29;;;;;;;0.60;0.60;;;;;;;38.73;18.25;98882.09;4926142;28;20127;-79
2021/07/20 10:52:05;;;;;;;0.70;0.70;;;;;;;37.58;19.10;98883.97;4969825;28;20043;-81
2021/07/20 10:54:37;;;;;;;0.60;0.60;;;;;;;37.77;19.13;98885.41;4952540;28;20042;-82
2021/07/20 10:57:07;;;;;;;0.70;0.70;;;;;;;38.44;18.03;98889.69;4954680;28;20038;-79
2021/07/20 10:59:55;;;;;;;0.70;0.70;;;;;;;39.19;17.55;98889.13;4945742;28;20081;-79
2021/07/20 11:02:33;;;;;;;0.70;0.70;;;;;;;39.86;16.97;98883.72;4953387;28;20110;-82
2021/07/20 11:05:06;;;;;;;0.70;0.70;;;;;;;39.84;17.23;98886.09;4937628;28;20081;-81
2021/07/20 11:07:50;;;;;;;0.63;0.63;;;;;;;40.40;17.14;98870.88;4938851;28;20069;-81
2021/07/20 11:10:23;;;;;;;0.70;0.70;;;;;;;39.57;16.79;98872.78;4934612;28;20042;-80
2021/07/20 11:12:55;;;;;;;0.65;0.65;;;;;;;37.65;18.81;98872.94;4937609;28;20043;-83
2021/07/20 11:15:21;;;;;;;0.70;0.70;;;;;;;37.56;18.93;98886.34;4968592;28;20480;-80
2021/07/20 11:17:49;;;;;;;0.60;0.60;;;;;;;37.67;18.76;98880.25;4937682;28;20531;-82
2021/07/20 11:20:19;;;;;;;0.70;0.70;;;;;;;38.11;17.91;98870.06;4953181;28;20146;-82
2021/07/20 11:22:47;;;;;;;0.70;0.70;;;;;;;37.93;17.74;98866.66;4971990;28;20053;-83
2021/07/20 11:25:13;;;;;;;0.68;0.68;;;;;;;38.07;17.39;98867.13;4941700;28;20038;-80
2021/07/20 11:27:42;;;;;;;0.70;0.70;;;;;;;38.15;17.91;98867.34;4957012;28;20049;-82
2021/07/20 11:30:19;;;;;;;0.70;0.70;;;;;;;38.48;17.43;98870.84;4920472;28;20045;-81
2021/07/20 11:32:57;;;;;;;0.70;0.70;;;;;;;37.56;18.51;98874.22;4936681;28;21713;-82
2021/07/20 11:35:26;;;;;;;0.70;0.70;;;;;;;38.15;18.71;98856.06;4943403;28;20059;-77
2021/07/20 11:37:56;;;;;;;0.10;0.10;;;;;;;37.68;18.08;98864.94;4937188;28;20519;-79
2021/07/20 11:40:26;;;;;;;0.80;0.80;;;;;;;37.13;18.43;98867.03;4973126;28;20424;-82
2021/07/20 11:42:57;;;;;;;0.77;0.77;;;;;;;37.34;18.64;98864.16;4956396;28;20084;-82
2021/07/20 11:45:27;;;;;;;0.60;0.60;;;;;;;38.01;18.30;98851.59;4939264;28;20054;-80
2021/07/20 11:48:06;;;;;;;0.60;0.60;;;;;;;38.30;17.23;98861.78;4940598;28;20312;-82
2021/07/20 11:51:00;;;;;;;0.65;0.65;;;;;;;38.01;18.06;98857.22;4940462;28;20492;-80
2021/07/20 11:53:50;;;;;;;0.70;0.70;;;;;;;37.97;17.76;98856.28;4941108;28;20070;-81
2021/07/20 11:56:22;;;;;;;0.70;0.70;;;;;;;37.48;18.42;98861.88;4944633;28;20053;-80
2021/07/20 11:59:25;;;;;;;0.70;0.70;;;;;;;37.93;17.80;98871.47;4955986;28;20512;-82
2021/07/20 12:02:25;;;;;;;0.70;0.70;;;;;;;37.92;17.55;98864.16;4969571;28;20509;-80